Terminal Aerodrome Forecast
Issued by NWS

Home | Current Version | Previous Version | Text Only | Print | Product List | Glossary On
Versions: 1 2 3 4 5 6 7 8 9 10 11 12
000
FTUS44 KTSA 242300
TAFXNA
TAF
KXNA 242320Z 2500/2524 23008KT P6SM SCT150
     FM250900 24009KT P6SM OVC100 PROB30 2509/2515 -RA BKN050
     FM251500 27014G23KT P6SM OVC050=

USA.gov is the U.S. government's official web portal to all federal, state and local government web resources and services.